Tiempo atmosférico en la estación meteorológica de Vallehermoso, Dama, Santa Cruz de Tenerife (190 m.)



Fecha
DESCASC
Temp. máxima en grados centígrados (hora)
DESCASC
Temp. mínima en grados centígrados (hora)
DESCASC
Temp. media en grados centígrados
DESCASC
Racha de viento máxima en m/sg (hora)
DESCASC
Velocidad máxima media en intervalos de 10 minutos(hora)
DESCASC
Precipitaciones diarias en mm
DESCASC
Precipitaciones de 00:00 a 06:00 en mm
DESCASC
Precipitaciones de 06:00 a 12:00 en mm
DESCASC
Precipitaciones de 12:00 a 18:00 en mm
DESCASC
Precipitaciones de 18:00 a 24:00 en mm
DESCASC
16-06-2019 24.5 (18:00) 14.8 (07:30) 19.7 4.44 (15:00) 2.78 (18:20) 0 0 0 0 0
15-06-2019 26.7 (16:40) 15 (04:30) 20.9 5.28 (16:00) 3.89 (16:20) 0 0 0 0 0
14-06-2019 23.3 (14:20) 15.1 (04:30) 19.2 3.89 (13:30) 2.5 (13:30) 0 0 0 0 0
13-06-2019 24.5 (18:00) 15.9 (00:00) 20.2 6.39 (20:20) 4.17 (20:30) 0 0 0 0 0
12-06-2019 25.2 (14:30) 17 (00:00) 21.1 7.5 (23:50) 3.33 (17:50) 0 0 0 0 0
11-06-2019 24.3 (14:10) 15.6 (00:00) 19.9 5.28 (15:40) 3.33 (15:00) 0 0 0 0 0
10-06-2019 24.5 (15:20) 14.8 (00:00) 19.7 5.28 (17:00) 3.06 (17:00) 0 0 0 0 0
09-06-2019 25 (14:00) 15.7 (00:00) 20.3 7.22 (16:30) 3.61 (16:00) 0 0 0 0 0
08-06-2019 23.8 (12:40) 16 (00:00) 19.9 5 (16:40) 3.06 (16:00) 0 0 0 0 0
07-06-2019 25.3 (14:30) 15.6 (00:00) 20.4 6.39 (14:50) 4.17 (14:50) 0 0 0 0 0
06-06-2019 25.6 (13:30) 16.6 (00:00) 21.1 9.17 (11:10) 5 (11:30) 0 0 0 0 0
05-06-2019 24.3 (13:20) 17.2 (00:00) 20.8 4.72 (18:40) 2.78 (13:00) 0 0 0 0 0
04-06-2019 27.5 (15:50) 18.5 (00:00) 23 4.72 (12:30) 2.78 (12:00) 0 0 0 0 0
03-06-2019 28.7 (13:00) 19.2 (00:00) 24 4.72 (18:30) 3.06 (17:50) 0 0 0 0 0
02-06-2019 25 (14:40) 16.4 (00:00) 20.7 6.39 (04:30) 3.61 (04:30) 0 0 0 0 0
01-06-2019 25.4 (13:00) 16.5 (00:00) 20.9 4.72 (21:30) 2.78 (12:20) 0 0 0 0 0
31-05-2019 23.7 (16:30) 14.8 (00:00) 19.3 4.44 (15:10) 3.06 (15:20) 0 0 0 0 0
30-05-2019 23.5 (11:40) 15.1 (00:00) 19.3 5.83 (16:00) 3.61 (16:30) 0 0 0 0 0
29-05-2019 24.4 (14:00) 18.4 (00:00) 21.4 4.72 (18:20) 3.33 (18:30) 0 0 0 0 0
28-05-2019 23.6 (16:40) 17 (00:00) 20.3 6.67 (12:50) 4.17 (12:50) 0 0 0 0 0
27-05-2019 24.8 (14:30) 15.5 (00:00) 20.1 4.17 (16:20) 3.06 (16:20) 0 0 0 0 0
26-05-2019 24.4 (15:00) 16.2 (00:00) 20.3 3.89 (17:30) 2.5 (17:30) 0 0 0 0 0
25-05-2019 24.9 (12:20) 16.9 (00:00) 20.9 7.5 (05:00) 4.17 (05:00) 0 0 0 0 0
24-05-2019 24.2 (14:30) 15.5 (00:00) 19.9 4.72 (15:20) 2.78 (01:20) 0 0 0 0 0
23-05-2019 24.9 (16:10) 16.1 (00:00) 20.5 5 (18:40) 3.33 (16:00) 0 0 0 0 0
22-05-2019 24.3 (15:10) 15.3 (00:00) 19.8 5 (18:50) 2.78 (14:30) 0 0 0 0 0
21-05-2019 24.4 (16:30) 15 (06:20) 19.7 5 (21:00) 3.06 (17:00) 0 0 0 0 0

Gráficas

Temp. máximas Temp. mínimas Temp. medias Precipitaciones Rachas de viento máximas Velocidades máximas media en intervalos de 10 minutos

Datos horarios

Fecha y hora oficial Temperatura (ºC) Velocidad del viento (km/h) Dirección del viento Racha (km/h) Dirección de racha Precipitación (mm) Presión (hPa) Tendencia (hPa) Humedad (%)
2019-06-19 23:00:00 19.7 2 Sudeste 6 Sudeste 0 -- -- 80
2019-06-19 22:00:00 20.6 3 Sudeste 6 Sudeste 0 -- -- 80
2019-06-19 21:00:00 21.6 0 Calma 8 Sudoeste 0 -- -- 76
2019-06-19 20:00:00 22.7 5 Oeste 13 Sur 0 -- -- 75
2019-06-19 19:00:00 23.7 6 Sur 14 Sur 0 -- -- 67
2019-06-19 18:00:00 25.5 8 Oeste 18 Oeste 0 -- -- 61
2019-06-19 17:00:00 25 9 Sur 18 Sur 0 -- -- 58
2019-06-19 16:00:00 25.7 8 Sur 12 Sur 0 -- -- 56
2019-06-19 15:00:00 25.8 8 Sudoeste 16 Oeste 0 -- -- 60
2019-06-19 14:00:00 25.3 6 Sudoeste 11 Sudoeste 0 -- -- 65
2019-06-19 13:00:00 24.6 7 Sudoeste 12 Sudoeste 0 -- -- 68
2019-06-19 12:00:00 -- -- -- -- -- -- -- -- --
2019-06-19 11:00:00 -- -- -- -- -- -- -- -- --
2019-06-19 10:00:00 -- -- -- -- -- -- -- -- --
2019-06-19 09:00:00 -- -- -- -- -- -- -- -- --
2019-06-19 08:00:00 -- -- -- -- -- -- -- -- --
2019-06-19 07:00:00 -- -- -- -- -- -- -- -- --
2019-06-19 06:00:00 -- -- -- -- -- -- -- -- --
2019-06-19 05:00:00 -- -- -- -- -- -- -- -- --
2019-06-19 04:00:00 -- -- -- -- -- -- -- -- --
2019-06-19 03:00:00 -- -- -- -- -- -- -- -- --
2019-06-19 02:00:00 -- -- -- -- -- -- -- -- --
2019-06-19 01:00:00 -- -- -- -- -- -- -- -- --
2019-06-19 00:00:00 -- -- -- -- -- -- -- -- --
2019-06-18 23:00:00 -- -- -- -- -- -- -- -- --
2019-06-18 22:00:00 -- -- -- -- -- -- -- -- --
2019-06-18 21:00:00 -- -- -- -- -- -- -- -- --
2019-06-18 20:00:00 -- -- -- -- -- -- -- -- --
2019-06-18 19:00:00 -- -- -- -- -- -- -- -- --
2019-06-18 18:00:00 26.5 9 Noroeste 16 Noroeste 0 -- -- 63
2019-06-18 17:00:00 26.1 7 Oeste 15 Noroeste 0 -- -- 67
2019-06-18 16:00:00 26.8 7 Sudoeste 16 Oeste 0 -- -- 67
2019-06-18 15:00:00 27.3 9 Noroeste 16 Noroeste 0 -- -- 65
2019-06-18 14:00:00 26.8 9 Noroeste 15 Noroeste 0 -- -- 69
2019-06-18 13:00:00 24.3 6 Oeste 13 Oeste 0 -- -- 78
2019-06-18 12:00:00 23.8 7 Oeste 14 Oeste 0 -- -- 78
2019-06-18 11:00:00 23.5 4 Oeste 9 Sudoeste 0 -- -- 80
2019-06-18 10:00:00 22.1 4 Sudoeste 12 Noroeste 0 -- -- 84
2019-06-18 09:00:00 20.9 7 Norte 15 Norte 0 -- -- 85
2019-06-18 08:00:00 20.2 8 Norte 17 Noroeste 0 -- -- 92
2019-06-18 07:00:00 20.3 6 Norte 22 Norte 0 -- -- 89
2019-06-18 06:00:00 20.5 14 Norte 21 Norte 0 -- -- 90
2019-06-18 05:00:00 20.5 11 Norte 22 Norte 0 -- -- 87
2019-06-18 04:00:00 20.2 13 Norte 23 Noroeste 0 -- -- 87
2019-06-18 03:00:00 20.1 15 Norte 26 Norte 0 -- -- 92
2019-06-18 02:00:00 20.3 15 Norte 30 Noroeste 0 -- -- 85
2019-06-18 01:00:00 20.3 16 Norte 33 Norte 0 -- -- 89
2019-06-18 00:00:00 20.7 17 Norte 30 Noroeste 0 -- -- 85
2019-06-17 23:00:00 21 17 Norte 32 Norte 0 -- -- 84
2019-06-17 22:00:00 20.9 20 Norte 34 Norte 0 -- -- 81
2019-06-17 21:00:00 21.2 16 Norte 46 Norte 0 -- -- 79
2019-06-17 20:00:00 22.6 14 Noroeste 28 Norte 0 -- -- 76
2019-06-17 19:00:00 23.6 16 Noroeste 32 Noroeste 0 -- -- 74
2019-06-17 18:00:00 25.5 14 Noroeste 30 Norte 0 -- -- 67
2019-06-17 17:00:00 26.7 17 Noroeste 35 Noroeste 0 -- -- 62
2019-06-17 16:00:00 26.8 18 Noroeste 30 Norte 0 -- -- 62
2019-06-17 15:00:00 26.8 16 Noroeste 29 Noroeste 0 -- -- 62
2019-06-17 14:00:00 26.5 19 Noroeste 35 Noroeste 0 -- -- 62
2019-06-17 13:00:00 26.1 18 Noroeste 28 Noroeste 0 -- -- 62
2019-06-17 12:00:00 25.4 15 Noroeste 25 Noroeste 0 -- -- 63
2019-06-17 11:00:00 24.2 14 Noroeste 24 Noroeste 0 -- -- 68
2019-06-17 10:00:00 22.9 13 Noroeste 23 Noroeste -- -- -- 68
2019-06-17 09:00:00 20.3 10 Noroeste 16 Norte 0 -- -- 75
2019-06-17 08:00:00 17.8 10 Norte 16 Norte 0 -- -- 83
2019-06-17 07:00:00 17.3 10 Norte 19 Noroeste 0 -- -- 84
2019-06-17 06:00:00 16.7 9 Norte 13 Noroeste 0 -- -- 86
2019-06-17 05:00:00 15.8 4 Norte 6 Nordeste 0 -- -- 85
2019-06-17 04:00:00 15.7 0 Calma 4 Noroeste 0 -- -- 86
2019-06-17 03:00:00 16 4 Norte 5 Norte 0 -- -- 82
2019-06-17 02:00:00 16.6 0 Calma 6 Sudeste 0 -- -- 81
2019-06-17 01:00:00 16.8 4 Sudeste 5 Sudeste 0 -- -- 80
2019-06-17 00:00:00 17.3 0 Calma 7 Este 0 -- -- 78
2019-06-16 23:00:00 18 4 Sudeste 6 Sur 0 -- -- 80
2019-06-16 22:00:00 18.9 4 Sudeste 9 Este 0 -- -- 76
2019-06-16 21:00:00 20.1 3 Sudoeste 13 Noroeste 0 -- -- 74
2019-06-16 20:00:00 22 8 Noroeste 16 Oeste 0 -- -- 59
2019-06-16 19:00:00 23.3 9 Noroeste 15 Noroeste 0 -- -- 54
2019-06-16 18:00:00 24.5 9 Noroeste 16 Noroeste 0 -- -- 54
2019-06-16 17:00:00 23.9 8 Sudoeste 14 Oeste 0 -- -- 57
2019-06-16 16:00:00 23.4 9 Sudoeste 16 Sudoeste 0 -- -- 59
2019-06-16 15:00:00 23.4 10 Sudoeste 16 Sudoeste 0 -- -- 59
2019-06-16 14:00:00 23.2 9 Sudoeste 13 Sudoeste 0 -- -- 59
2019-06-16 13:00:00 23.2 8 Sudoeste 12 Oeste 0 -- -- 62
2019-06-16 12:00:00 22.3 8 Sudoeste 11 Sudoeste 0 -- -- 64
2019-06-16 11:00:00 21.6 6 Sudoeste 10 Sudoeste 0 -- -- 66
2019-06-16 10:00:00 20.6 6 Sur 9 Sur 0 -- -- 68
2019-06-16 09:00:00 18.3 2 Sudeste 6 Noroeste 0 -- -- 75
2019-06-16 08:00:00 15 4 Nordeste 5 Nordeste 0 -- -- 89
2019-06-16 07:00:00 15.2 4 Nordeste 6 Este 0 -- -- 87
2019-06-16 06:00:00 15.2 3 Este 5 Este 0 -- -- 88
2019-06-16 05:00:00 15.7 5 Este 8 Este 0 -- -- 85
2019-06-16 04:00:00 16 6 Este 9 Este 0 -- -- 84
2019-06-16 03:00:00 16.3 5 Sudeste 8 Este 0 -- -- 84
2019-06-16 02:00:00 16.6 5 Este 8 Sudeste 0 -- -- 83
2019-06-16 01:00:00 17.3 5 Sudeste 11 Sudeste 0 -- -- 78
2019-06-16 00:00:00 18 8 Sudeste 14 Sur 0 -- -- 75
2019-06-15 23:00:00 18.2 8 Sur 14 Sudeste 0 -- -- 76
2019-06-15 22:00:00 18.5 6 Sudeste 13 Sudeste 0 -- -- 72
2019-06-15 21:00:00 19.2 8 Sur 17 Sur 0 -- -- 70
2019-06-15 20:00:00 20.2 8 Sur 15 Sudoeste 0 -- -- 68
2019-06-15 19:00:00 21.3 9 Sur 13 Sudoeste 0 -- -- 63
2019-06-15 18:00:00 23.2 7 Sudoeste 16 Oeste 0 -- -- 55
2019-06-15 17:00:00 26.6 10 Noroeste 19 Noroeste 0 -- -- 48
2019-06-15 16:00:00 25.6 13 Noroeste 19 Noroeste 0 -- -- 52
2019-06-15 15:00:00 24.6 9 Noroeste 15 Noroeste 0 -- -- 54
2019-06-15 14:00:00 24 8 Noroeste 14 Noroeste 0 -- -- 57
2019-06-15 13:00:00 23.5 6 Noroeste 13 Norte 0 -- -- 58
2019-06-15 12:00:00 22.7 5 Noroeste 12 Noroeste 0 -- -- 60
2019-06-15 11:00:00 23.8 8 Noroeste 13 Noroeste 0 -- -- 56
2019-06-15 10:00:00 21.4 5 Noroeste 10 Noroeste 0 -- -- 66
2019-06-15 09:00:00 18.9 3 Sudoeste 6 Sudoeste 0 -- -- 74
2019-06-15 08:00:00 15.7 5 Este 11 Este 0 -- -- 83
2019-06-15 07:00:00 15.3 8 Este 11 Este 0 -- -- 80
2019-06-15 06:00:00 15.4 7 Sudeste 12 Este 0 -- -- 76
2019-06-15 05:00:00 15.3 9 Este 11 Este 0 -- -- 78
2019-06-15 04:00:00 15.2 3 Este 5 Nordeste 0 -- -- 86
2019-06-15 03:00:00 15.6 4 Nordeste 8 Este 0 -- -- 85
2019-06-15 02:00:00 16.2 5 Este 9 Este 0 -- -- 83
2019-06-15 01:00:00 16.4 7 Este 9 Este 0 -- -- 81
2019-06-15 00:00:00 16.7 0 Calma 8 Norte 0 -- -- 78
2019-06-14 23:00:00 17.4 3 Norte 4 Norte 0 -- -- 77
2019-06-14 22:00:00 18.9 0 Calma 4 Sudoeste 0 -- -- 73
2019-06-14 21:00:00 19.5 2 Sur 8 Sur 0 -- -- 70
2019-06-14 20:00:00 20.1 4 Sur 8 Sur 0 -- -- 71
2019-06-14 19:00:00 20.5 4 Oeste 7 Oeste 0 -- -- 70
2019-06-14 18:00:00 20.8 5 Oeste 9 Sudoeste 0 -- -- 68
2019-06-14 17:00:00 21.3 6 Sudoeste 12 Sudoeste 0 -- -- 68
2019-06-14 16:00:00 21.6 7 Sudoeste 12 Sudoeste 0 -- -- 66
2019-06-14 15:00:00 22.8 8 Sudoeste 13 Sur 0 -- -- 62
2019-06-14 14:00:00 22.8 8 Sudoeste 14 Sudoeste 0 -- -- 61
2019-06-14 13:00:00 22 8 Sur 12 Sudoeste 0 -- -- 61
2019-06-14 12:00:00 21.8 7 Sur 10 Sur 0 -- -- 59
2019-06-14 11:00:00 22.1 5 Sudoeste 9 Sudoeste 0 -- -- 55
2019-06-14 10:00:00 21.2 4 Sudoeste 7 Sudoeste 0 -- -- 61
2019-06-14 09:00:00 17.4 0 Calma 6 Nordeste 0 -- -- 74
2019-06-14 08:00:00 15.7 3 Norte 8 Sudeste 0 -- -- 79
2019-06-14 07:00:00 15.7 6 Este 10 Este 0 -- -- 77
2019-06-14 06:00:00 15.6 8 Este 10 Este 0 -- -- 79
2019-06-14 05:00:00 15.3 5 Sudeste 7 Este 0 -- -- 84
2019-06-14 04:00:00 15.4 2 Nordeste 6 Nordeste 0 -- -- 81
2019-06-14 03:00:00 16.2 2 Este 8 Sudeste 0 -- -- 82
2019-06-14 02:00:00 16.5 5 Este 6 Este 0 -- -- 80
2019-06-14 01:00:00 17.2 2 Este 8 Sudeste 0 -- -- 77
2019-06-14 00:00:00 17.6 6 Sudeste 9 Noroeste 0 -- -- 76
2019-06-13 23:00:00 18.2 5 Noroeste 11 Oeste 0 -- -- 74
2019-06-13 22:00:00 19.1 4 Nordeste 20 Sur 0 -- -- 74
2019-06-13 21:00:00 20 14 Sudeste 23 Sudeste 0 -- -- 66
2019-06-13 20:00:00 21.1 10 Sur 18 Sur 0 -- -- 62
2019-06-13 19:00:00 21.9 9 Sur 15 Sur 0 -- -- 56
2019-06-13 18:00:00 24.5 10 Oeste 17 Oeste 0 -- -- 53
2019-06-13 17:00:00 23.7 9 Sudoeste 17 Sudoeste 0 -- -- 57
2019-06-13 16:00:00 22.7 9 Sur 20 Sur 0 -- -- 64
2019-06-13 15:00:00 22.8 12 Sur 22 Sur 0 -- -- 63
2019-06-13 14:00:00 23.2 8 Sudeste 18 Sur 0 -- -- 59
2019-06-13 13:00:00 23.4 6 Sudoeste 14 Sur 0 -- -- 61
2019-06-13 12:00:00 22.6 7 Sur 12 Sudoeste 0 -- -- 64
2019-06-13 11:00:00 20.8 7 Sur 12 Sur 0 -- -- 61
2019-06-13 10:00:00 21.3 3 Sur 8 Sur 0 -- -- 60
2019-06-13 09:00:00 18.6 2 Este 5 Este 0 -- -- 73
2019-06-13 08:00:00 15.9 0 Calma 7 Este 0 -- -- 80
2019-06-13 07:00:00 15.9 4 Este 9 Este 0 -- -- 78
2019-06-13 06:00:00 16.2 4 Sudeste 10 Este 0 -- -- 76
2019-06-13 05:00:00 17.4 7 Este 12 Este 0 -- -- 65
2019-06-13 04:00:00 17.8 7 Este 16 Este 0 -- -- 66
2019-06-13 03:00:00 17.7 8 Este 13 Sudeste 0 -- -- 68
2019-06-13 02:00:00 18.8 4 Este 20 Este 0 -- -- 70
2019-06-13 01:00:00 19.4 10 Nordeste 23 Nordeste 0 -- -- 61
2019-06-13 00:00:00 19.5 10 Nordeste 27 Nordeste 0 -- -- 62
2019-06-12 23:00:00 19.6 5 Sudeste 13 Este 0 -- -- 70
2019-06-12 22:00:00 19.7 5 Sudeste 8 Sudoeste 0 -- -- 73
2019-06-12 21:00:00 20.7 5 Sur 11 Sudeste 0 -- -- 68
2019-06-12 20:00:00 21.3 6 Sur 12 Sudoeste 0 -- -- 72
2019-06-12 19:00:00 22 7 Sur 18 Sur 0 -- -- 76
2019-06-12 18:00:00 23.2 11 Sur 20 Sudeste 0 -- -- 67
2019-06-12 17:00:00 24 8 Sur 15 Sur 0 -- -- 65
2019-06-12 16:00:00 24.5 9 Sur 14 Sur 0 -- -- 66
2019-06-12 15:00:00 24.3 6 Sudoeste 13 Sudoeste 0 -- -- 65
2019-06-12 14:00:00 24.5 7 Sur 15 Oeste 0 -- -- 63
2019-06-12 13:00:00 24.2 8 Sudoeste 12 Sudoeste 0 -- -- 66
2019-06-12 12:00:00 22.6 6 Sur 15 Sur 0 -- -- 67
2019-06-12 11:00:00 21.8 9 Sur 17 Sur 0 -- -- 71
2019-06-12 10:00:00 21.8 6 Sur 13 Sur 0 -- -- 71
2019-06-12 09:00:00 20 3 Sur 8 Sur 0 -- -- 77
2019-06-12 08:00:00 17.6 6 Este 9 Este 0 -- -- 84
2019-06-12 07:00:00 17.2 4 Sudeste 9 Sudeste 0 -- -- 87
2019-06-12 06:00:00 17.2 5 Sudeste 12 Sudeste 0 -- -- 85
2019-06-12 05:00:00 17 5 Sudeste 8 Sudeste 0 -- -- 86
2019-06-12 04:00:00 17.4 5 Sudeste 11 Este 0 -- -- 86
2019-06-12 03:00:00 17.6 5 Sudeste 8 Sudeste 0 -- -- 87
2019-06-12 02:00:00 18.2 3 Nordeste 8 Sur 0 -- -- 86
2019-06-12 01:00:00 18.5 7 Sur 10 Sur 0 -- -- 85
2019-06-12 00:00:00 18.7 6 Sudeste 10 Sudeste 0 -- -- 84
2019-06-11 23:00:00 19.2 4 Sudeste 11 Sudoeste 0 -- -- 85
2019-06-11 22:00:00 19.6 5 Sudeste 10 Sudeste 0 -- -- 80
2019-06-11 21:00:00 20.4 6 Sudeste 13 Sudeste 0 -- -- 77
2019-06-11 20:00:00 21.7 6 Sudeste 11 Sudeste 0 -- -- 69
2019-06-11 19:00:00 22.3 8 Sur 13 Sur 0 -- -- 69
2019-06-11 18:00:00 23.5 10 Sudoeste 16 Sur 0 -- -- 66
2019-06-11 17:00:00 24 9 Sur 17 Sur 0 -- -- 64
2019-06-11 16:00:00 23.6 9 Sur 19 Sur 0 -- -- 68
2019-06-11 15:00:00 23.7 12 Sur 17 Sur 0 -- -- 60
2019-06-11 14:00:00 24.1 8 Sudoeste 14 Sur 0 -- -- 57
2019-06-11 13:00:00 23.1 6 Sudoeste 12 Sudoeste 0 -- -- 66
2019-06-11 12:00:00 22.3 9 Sur 13 Sur 0 -- -- 68
2019-06-11 11:00:00 21.6 7 Sur 12 Sur 0 -- -- 69
2019-06-11 10:00:00 21.2 6 Sudoeste 9 Sudoeste 0 -- -- 72
2019-06-11 09:00:00 18.9 3 Sudoeste 5 Sudoeste 0 -- -- 78
2019-06-11 08:00:00 16.3 4 Este 8 Este 0 -- -- 88
2019-06-11 07:00:00 15.7 0 Calma 4 Nordeste 0 -- -- 89
2019-06-11 06:00:00 16.1 0 Calma 5 Sudeste 0 -- -- 87
2019-06-11 05:00:00 16.3 3 Sudeste 5 Sudeste 0 -- -- 86
2019-06-11 04:00:00 16.8 0 Calma 7 Este 0 -- -- 83
2019-06-11 03:00:00 17.2 4 Este 9 Este 0 -- -- 82
2019-06-11 02:00:00 17.2 5 Sudeste 8 Sudeste 0 -- -- 81
2019-06-11 01:00:00 17.4 5 Sudeste 7 Sudeste 0 -- -- 81
2019-06-11 00:00:00 17.7 5 Sudeste 8 Sudeste 0 -- -- 81
2019-06-10 23:00:00 18.1 0 Calma 7 Sudoeste 0 -- -- 79
2019-06-10 22:00:00 19.1 0 Calma 8 Sur 0 -- -- 74
2019-06-10 21:00:00 19.9 4 Sur 9 Sur 0 -- -- 72
2019-06-10 20:00:00 21.1 5 Sur 10 Sudoeste 0 -- -- 65
2019-06-10 19:00:00 21.7 7 Sudoeste 13 Sudoeste 0 -- -- 68
2019-06-10 18:00:00 23.3 9 Sudoeste 17 Oeste 0 -- -- 63
2019-06-10 17:00:00 23.9 11 Sudoeste 19 Sudoeste 0 -- -- 62
2019-06-10 16:00:00 24.1 9 Sudoeste 13 Sudoeste 0 -- -- 61
2019-06-10 15:00:00 24.2 8 Sudoeste 14 Sudoeste 0 -- -- 62
2019-06-10 14:00:00 23.7 8 Sudoeste 13 Sur 0 -- -- 63
2019-06-10 13:00:00 24.1 7 Sudoeste 15 Oeste 0 -- -- 61
2019-06-10 12:00:00 23.1 6 Sudoeste 10 Sudoeste 0 -- -- 62
2019-06-10 11:00:00 22.2 6 Sur 10 Sudoeste 0 -- -- 63
2019-06-10 10:00:00 21.3 5 Sudoeste 8 Sudoeste 0 -- -- 65
2019-06-10 09:00:00 18.7 3 Sudeste 8 Este 0 -- -- 76
2019-06-10 08:00:00 15.3 7 Sudeste 9 Sudeste 0 -- -- 88
2019-06-10 07:00:00 14.9 0 Calma 5 Sudeste 0 -- -- 89
2019-06-10 06:00:00 15.1 2 Sudeste 6 Sudeste 0 -- -- 87
2019-06-10 05:00:00 15.3 4 Este 6 Este 0 -- -- 85
2019-06-10 04:00:00 15.3 3 Nordeste 4 Nordeste 0 -- -- 86
2019-06-10 03:00:00 16.1 0 Calma 7 Este 0 -- -- 83
2019-06-10 02:00:00 16.6 4 Sudeste 9 Sudeste 0 -- -- 81
2019-06-10 01:00:00 16.9 6 Sudeste 8 Sudeste 0 -- -- 83
2019-06-10 00:00:00 17.5 4 Sudeste 6 Sudoeste 0 -- -- 81
2019-06-09 23:00:00 18.3 2 Sudeste 10 Sudeste 0 -- -- 76
2019-06-09 22:00:00 18.9 5 Sudeste 16 Sudeste 0 -- -- 72
2019-06-09 21:00:00 19.6 9 Sur 14 Sur 0 -- -- 70
2019-06-09 20:00:00 20.6 5 Sur 9 Sur 0 -- -- 69
2019-06-09 19:00:00 21.6 6 Sudoeste 15 Sudoeste 0 -- -- 64
2019-06-09 18:00:00 22.6 9 Sudoeste 20 Sur 0 -- -- 64
2019-06-09 17:00:00 23 6 Sur 26 Sur 0 -- -- 62
2019-06-09 16:00:00 23.2 13 Sur 19 Sur 0 -- -- 59
2019-06-09 15:00:00 24.2 9 Sudoeste 19 Oeste 0 -- -- 55
2019-06-09 14:00:00 25 11 Oeste 16 Oeste 0 -- -- 54
2019-06-09 13:00:00 22.9 8 Sur 21 Sudeste 0 -- -- 59
2019-06-09 12:00:00 22 11 Sur 15 Sur 0 -- -- 61
2019-06-09 11:00:00 21.9 7 Sudoeste 10 Sur 0 -- -- 59
2019-06-09 10:00:00 20.4 4 Sudoeste 7 Oeste 0 -- -- 71
2019-06-09 09:00:00 18.9 2 Sudoeste 6 Sudeste 0 -- -- 76
2019-06-09 08:00:00 15.9 4 Sudeste 5 Este 0 -- -- 85
2019-06-09 07:00:00 15.9 3 Este 7 Este 0 -- -- 86
2019-06-09 06:00:00 16.1 3 Este 4 Nordeste 0 -- -- 87
2019-06-09 05:00:00 16.3 0 Calma 5 Nordeste 0 -- -- 87
2019-06-09 04:00:00 15.8 2 Nordeste 4 Nordeste 0 -- -- 89
2019-06-09 03:00:00 15.9 0 Calma 2 Oeste 0 -- -- 85
2019-06-09 02:00:00 16.6 0 Calma 4 Sudeste 0 -- -- 83
2019-06-09 01:00:00 17.6 3 Sudeste 8 Sudeste 0 -- -- 78
2019-06-09 00:00:00 17.5 3 Sudeste 8 Este 0 -- -- 71
2019-06-08 23:00:00 18.3 5 Nordeste 12 Este 0 -- -- 67
2019-06-08 22:00:00 18.9 0 Calma 7 Sudoeste 0 -- -- 74
2019-06-08 21:00:00 20.3 2 Oeste 10 Sudoeste 0 -- -- 72
2019-06-08 20:00:00 20.9 4 Sudeste 15 Sudeste 0 -- -- 77
2019-06-08 19:00:00 22.2 9 Sur 17 Sur 0 -- -- 74
2019-06-08 18:00:00 23.3 8 Sur 18 Sur 0 -- -- 70
2019-06-08 17:00:00 23 8 Sudoeste 18 Oeste 0 -- -- 73
2019-06-08 16:00:00 23.2 11 Sur 15 Sur 0 -- -- 74
2019-06-08 15:00:00 23.1 8 Sur 12 Sudoeste 0 -- -- 73
2019-06-08 14:00:00 22.8 6 Sudoeste 13 Sudoeste 0 -- -- 73
2019-06-08 13:00:00 23 5 Sudoeste 14 Oeste 0 -- -- 74
2019-06-08 12:00:00 22.7 5 Sudoeste 10 Oeste 0 -- -- 73
2019-06-08 11:00:00 22.2 6 Noroeste 13 Noroeste 0 -- -- 71
2019-06-08 10:00:00 21.4 5 Sur 9 Sur 0 -- -- 71
2019-06-08 09:00:00 19.3 0 Calma 4 Nordeste 0 -- -- 83
2019-06-08 08:00:00 16.1 0 Calma 5 Nordeste 0 -- -- 89
2019-06-08 07:00:00 16.1 0 Calma 5 Sudeste 0 -- -- 87
2019-06-08 06:00:00 16.5 3 Sudeste 8 Sudeste 0 -- -- 85
2019-06-08 05:00:00 16.7 6 Sudeste 9 Sudeste 0 -- -- 82
2019-06-08 04:00:00 16.4 3 Sudeste 8 Este 0 -- -- 82
2019-06-08 03:00:00 16.5 4 Sudeste 6 Sudeste 0 -- -- 84
2019-06-08 02:00:00 16.4 0 Calma 5 Noroeste 0 -- -- 84
2019-06-08 01:00:00 16.8 3 Norte 4 Norte 0 -- -- 84
2019-06-08 00:00:00 17.4 0 Calma 3 Oeste 0 -- -- 82
2019-06-07 23:00:00 18 2 Sudeste 4 Este 0 -- -- 78
2019-06-07 22:00:00 18.9 2 Sudeste 5 Sudeste 0 -- -- 77
2019-06-07 21:00:00 19.6 0 Calma 7 Sur 0 -- -- 74
2019-06-07 20:00:00 20.7 5 Sur 9 Sur 0 -- -- 68
2019-06-07 19:00:00 21.6 6 Sudoeste 11 Sudoeste 0 -- -- 65
2019-06-07 18:00:00 22.8 6 Sudoeste 14 Sudoeste 0 -- -- 60
2019-06-07 17:00:00 23.3 8 Sudoeste 15 Sudoeste 0 -- -- 60
2019-06-07 16:00:00 24.3 9 Sudoeste 15 Sudoeste 0 -- -- 57
2019-06-07 15:00:00 24.3 11 Sudoeste 23 Sudoeste 0 -- -- 57
2019-06-07 14:00:00 25.1 11 Oeste 19 Oeste 0 -- -- 54
2019-06-07 13:00:00 23.6 9 Sudoeste 13 Oeste 0 -- -- 57
2019-06-07 12:00:00 22.4 6 Sudoeste 12 Sudoeste 0 -- -- 61
2019-06-07 11:00:00 22 6 Sur 9 Sudoeste 0 -- -- 59
2019-06-07 10:00:00 21.2 5 Sudoeste 7 Sur 0 -- -- 61
2019-06-07 09:00:00 19 4 Sudeste 9 Este 0 -- -- 69
2019-06-07 08:00:00 16.1 7 Este 11 Este 0 -- -- 81
2019-06-07 07:00:00 15.7 6 Este 10 Este 0 -- -- 82
2019-06-07 06:00:00 15.6 6 Sudeste 9 Sudeste 0 -- -- 81
2019-06-07 05:00:00 15.7 5 Este 9 Este 0 -- -- 80
2019-06-07 04:00:00 15.7 3 Sudeste 8 Este 0 -- -- 79
2019-06-07 03:00:00 16.2 5 Sudeste 9 Sudeste 0 -- -- 75
2019-06-07 02:00:00 16.5 6 Sudeste 12 Sudeste 0 -- -- 70
2019-06-07 01:00:00 16.9 4 Sudeste 9 Sur 0 -- -- 69
2019-06-07 00:00:00 17.5 5 Este 12 Sudeste 0 -- -- 66
2019-06-06 23:00:00 17.6 5 Sudeste 7 Sudeste 0 -- -- 66
2019-06-06 22:00:00 18.9 2 Sudoeste 13 Sudeste 0 -- -- 58
2019-06-06 21:00:00 20.3 3 Sudeste 13 Oeste 0 -- -- 56
2019-06-06 20:00:00 21.6 4 Oeste 18 Oeste 0 -- -- 54
2019-06-06 19:00:00 22.3 9 Sur 18 Sur 0 -- -- 56
2019-06-06 18:00:00 23.9 8 Sur 32 Sudoeste 0 -- -- 48
2019-06-06 17:00:00 23.4 9 Sur 22 Sur 0 -- -- 53
2019-06-06 16:00:00 23.8 9 Sur 16 Sudeste 0 -- -- 49
2019-06-06 15:00:00 24.2 6 Sur 18 Sudoeste 0 -- -- 48
2019-06-06 14:00:00 24.5 8 Sudoeste 22 Oeste 0 -- -- 47
2019-06-06 13:00:00 23.8 12 Sur 30 Nordeste 0 -- -- 49
2019-06-06 12:00:00 22 12 Nordeste 33 Nordeste 0 -- -- 52
2019-06-06 11:00:00 21.7 17 Nordeste 30 Nordeste 0 -- -- 52
2019-06-06 10:00:00 21.1 7 Este 22 Nordeste 0 -- -- 54
2019-06-06 09:00:00 20 14 Este 24 Nordeste 0 -- -- 57
2019-06-06 08:00:00 18.3 3 Este 8 Este 0 -- -- 67
2019-06-06 07:00:00 18.1 3 Norte 12 Nordeste 0 -- -- 78
2019-06-06 06:00:00 17 3 Este 9 Este 0 -- -- 84
2019-06-06 05:00:00 16.6 5 Este 7 Este 0 -- -- 87
2019-06-06 04:00:00 17 2 Sudeste 10 Sudeste 0 -- -- 86
2019-06-06 03:00:00 17.3 4 Noroeste 6 Nordeste 0 -- -- 87
2019-06-06 02:00:00 17.7 4 Sudeste 8 Sudeste 0 -- -- 88
2019-06-06 01:00:00 18.1 2 Sudeste 8 Este 0 -- -- 85
2019-06-06 00:00:00 18.7 5 Sudeste 7 Sudeste 0 -- -- 86
2019-06-05 23:00:00 19.5 0 Calma 5 Este 0 -- -- 84
2019-06-05 22:00:00 20.1 0 Calma 15 Sur 0 -- -- 84
2019-06-05 21:00:00 20.7 6 Sur 15 Sur 0 -- -- 83
2019-06-05 20:00:00 21.6 4 Sur 12 Sudoeste 0 -- -- 78
2019-06-05 19:00:00 22 8 Sur 17 Sur 0 -- -- 78
2019-06-05 18:00:00 22.9 9 Sur 14 Sudoeste 0 -- -- 71
2019-06-05 17:00:00 23 8 Sudoeste 16 Sudoeste 0 -- -- 71
2019-06-05 16:00:00 24 10 Oeste 16 Oeste 0 -- -- 72
2019-06-05 15:00:00 24 9 Oeste 12 Sudoeste 0 -- -- 71
2019-06-05 14:00:00 23.7 9 Sur 14 Sudoeste 0 -- -- 70
2019-06-05 13:00:00 23.9 10 Sur 15 Sur 0 -- -- 67
2019-06-05 12:00:00 23.7 9 Sur 15 Sur 0 -- -- 67
2019-06-05 11:00:00 23.6 4 Sudoeste 10 Noroeste 0 -- -- 67
2019-06-05 10:00:00 22.4 4 Sur 9 Sur 0 -- -- 71
2019-06-05 09:00:00 19.9 6 Sur 10 Sudeste 0 -- -- 83
2019-06-05 08:00:00 17.5 4 Sudeste 5 Sudeste 0 -- -- 93
2019-06-05 07:00:00 17.2 0 Calma 6 Sudeste 0 -- -- 90
2019-06-05 06:00:00 17.3 0 Calma 4 Noroeste 0 -- -- 89
2019-06-05 05:00:00 17.8 0 Calma 9 Sudeste 0 -- -- 87
2019-06-05 04:00:00 18.6 6 Sudeste 14 Sudeste 0 -- -- 84
2019-06-05 03:00:00 19 9 Sudeste 15 Sudeste 0 -- -- 84
2019-06-05 02:00:00 18.9 8 Sudeste 11 Sudeste 0 -- -- 87
2019-06-05 01:00:00 19 5 Sur 7 Sur 0 -- -- 84
2019-06-05 00:00:00 19.7 6 Sudeste 10 Sur 0 -- -- 83
2019-06-04 23:00:00 19.8 3 Sudeste 6 Sur 0 -- -- 75
2019-06-04 22:00:00 20.9 3 Sudeste 7 Sudeste 0 -- -- 66
2019-06-04 21:00:00 22 4 Sur 7 Sur 0 -- -- 66
2019-06-04 20:00:00 22.7 5 Sur 8 Sur 0 -- -- 67
2019-06-04 19:00:00 23.8 5 Sudoeste 11 Oeste 0 -- -- 66
2019-06-04 18:00:00 25.3 7 Sur 14 Sur 0 -- -- 55
2019-06-04 17:00:00 26.1 9 Sur 15 Sudeste 0 -- -- 48
2019-06-04 16:00:00 27.3 6 Sur 11 Sudoeste 0 -- -- 45
2019-06-04 15:00:00 26.9 7 Sudoeste 11 Sudoeste 0 -- -- 45
2019-06-04 14:00:00 26.7 6 Sudoeste 11 Sudoeste 0 -- -- 48
2019-06-04 13:00:00 25.9 8 Sur 17 Sur 0 -- -- 52
2019-06-04 12:00:00 26.1 10 Sur 14 Sur 0 -- -- 51
2019-06-04 11:00:00 26.2 5 Sur 8 Sudoeste 0 -- -- 49
2019-06-04 10:00:00 25.2 4 Sudoeste 7 Sudoeste 0 -- -- 52
2019-06-04 09:00:00 22.4 3 Sudeste 10 Sudeste 0 -- -- 60
2019-06-04 08:00:00 19.7 7 Sudeste 10 Este 0 -- -- 67
2019-06-04 07:00:00 18.6 3 Sudeste 6 Este 0 -- -- 70
2019-06-04 06:00:00 18.6 3 Nordeste 9 Sudeste 0 -- -- 72
2019-06-04 05:00:00 19.2 5 Sudeste 8 Este 0 -- -- 71
2019-06-04 04:00:00 19.1 2 Nordeste 6 Este 0 -- -- 73
2019-06-04 03:00:00 20.1 3 Sudeste 12 Este 0 -- -- 67
2019-06-04 02:00:00 20.6 7 Sudeste 15 Sudeste 0 -- -- 67
2019-06-04 01:00:00 21.1 8 Sudeste 14 Sudeste 0 -- -- 65
2019-06-04 00:00:00 20.9 8 Sudeste 11 Sudeste 0 -- -- 66
2019-06-03 23:00:00 21.1 6 Sudeste 12 Sudeste 0 -- -- 71
2019-06-03 22:00:00 21.6 5 Sudeste 9 Sudeste 0 -- -- 68
2019-06-03 21:00:00 22.9 3 Sudeste 9 Sur 0 -- -- 63
2019-06-03 20:00:00 23.8 6 Sur 13 Sur 0 -- -- 62
2019-06-03 19:00:00 24.8 8 Sur 17 Sur 0 -- -- 59
2019-06-03 18:00:00 26.2 10 Sur 15 Sur 0 -- -- 54
2019-06-03 17:00:00 28.1 7 Sur 16 Sudoeste 0 -- -- 45
2019-06-03 16:00:00 28.5 9 Sur 15 Sur 0 -- -- 40
2019-06-03 15:00:00 27.2 6 Sur 15 Sur 0 -- -- 44
2019-06-03 14:00:00 26.9 8 Sur 12 Sur 0 -- -- 51
2019-06-03 13:00:00 28.7 6 Oeste 17 Norte 0 -- -- 49
2019-06-03 12:00:00 27.8 5 Oeste 14 Norte 0 -- -- 52
2019-06-03 11:00:00 26.8 4 Sur 12 Sudoeste 0 -- -- 55
2019-06-03 10:00:00 25.5 5 Sur 12 Sudoeste 0 -- -- 60
2019-06-03 09:00:00 22.9 5 Sudeste 7 Este 0 -- -- 59
2019-06-03 08:00:00 20.2 3 Este 9 Este 0 -- -- 69
2019-06-03 07:00:00 19.5 5 Este 9 Este 0 -- -- 67
2019-06-03 06:00:00 19.6 3 Este 10 Este 0 -- -- 68
2019-06-03 05:00:00 20 4 Este 12 Sudeste 0 -- -- 70
2019-06-03 04:00:00 19.7 8 Sudeste 13 Sudeste 0 -- -- 72
2019-06-03 03:00:00 19.8 3 Nordeste 14 Sudeste 0 -- -- 73
2019-06-03 02:00:00 19.5 6 Sudeste 13 Este 0 -- -- 87
2019-06-03 01:00:00 19.4 4 Norte 7 Norte 0 -- -- 82
2019-06-03 00:00:00 19.5 2 Nordeste 10 Norte 0 -- -- 89
2019-06-02 23:00:00 19.7 5 Norte 10 Norte 0 -- -- 89
2019-06-02 22:00:00 20.3 4 Sur 7 Sur 0 -- -- 87
2019-06-02 21:00:00 21.1 0 Calma 6 Oeste 0 -- -- 85
2019-06-02 20:00:00 22 4 Oeste 11 Sudoeste 0 -- -- 84
2019-06-02 19:00:00 22.5 6 Sur 15 Sur 0 -- -- 82
2019-06-02 18:00:00 23 12 Sur 17 Sur 0 -- -- 79
2019-06-02 17:00:00 23.4 8 Sur 15 Sur 0 -- -- 76
2019-06-02 16:00:00 23.6 9 Sur 13 Sur 0 -- -- 74
2019-06-02 15:00:00 24.6 8 Sur 15 Oeste 0 -- -- 68
2019-06-02 14:00:00 24.1 7 Sur 15 Sudoeste 0 -- -- 70
2019-06-02 13:00:00 23.9 5 Sur 13 Sur 0 -- -- 68
2019-06-02 12:00:00 23 9 Sur 13 Sur 0 -- -- 74
2019-06-02 11:00:00 22.5 8 Sur 13 Sur 0 -- -- 76
2019-06-02 10:00:00 21.7 4 Sur 9 Sur 0 -- -- 77
2019-06-02 09:00:00 19.2 3 Sur 5 Sur 0 -- -- 87
2019-06-02 08:00:00 16.4 0 Calma 6 Norte 0 -- -- 93
2019-06-02 07:00:00 16.6 5 Norte 10 Sudeste 0 -- -- 91
2019-06-02 06:00:00 17.8 6 Sudeste 19 Norte 0 -- -- 90
2019-06-02 05:00:00 18.2 10 Norte 23 Norte 0 -- -- 90
2019-06-02 04:00:00 18.8 12 Norte 19 Norte 0 -- -- 88
2019-06-02 03:00:00 19.1 5 Noroeste 10 Noroeste 0 -- -- 87
2019-06-02 02:00:00 19.1 0 Calma 13 Sur 0 -- -- 87
2019-06-02 01:00:00 19.1 9 Sur 18 Sudeste 0 -- -- 88
2019-06-02 00:00:00 19.4 5 Sur 11 Sudeste 0 -- -- 87
2019-06-01 23:00:00 19.4 4 Sur 16 Sudeste 0 -- -- 86
2019-06-01 22:00:00 19.5 8 Sur 17 Sudeste 0 -- -- 87
2019-06-01 21:00:00 19.7 6 Sur 11 Sur 0 -- -- 85
2019-06-01 20:00:00 20.7 8 Sur 12 Sur 0 -- -- 81
2019-06-01 19:00:00 21.8 6 Sudoeste 12 Sudoeste 0 -- -- 76
2019-06-01 18:00:00 21.9 10 Sur 14 Sur 0 -- -- 75
2019-06-01 17:00:00 22.6 9 Sur 13 Sudeste 0 -- -- 73
2019-06-01 16:00:00 23.5 7 Oeste 14 Oeste 0 -- -- 68
2019-06-01 15:00:00 23.8 8 Sudoeste 14 Oeste 0 -- -- 67
2019-06-01 14:00:00 23.9 7 Sudoeste 14 Oeste 0 -- -- 68
2019-06-01 13:00:00 25.4 9 Noroeste 15 Noroeste 0 -- -- 62
2019-06-01 12:00:00 21.9 8 Oeste 13 Sur 0 -- -- 76
2019-06-01 11:00:00 20.2 6 Sur 15 Sur 0 -- -- 81
2019-06-01 10:00:00 20.3 4 Noroeste 14 Noroeste 0 -- -- 80
2019-06-01 09:00:00 18.8 0 Calma 10 Norte 0 -- -- 87
2019-06-01 08:00:00 17 7 Norte 12 Norte 0 -- -- 94
2019-06-01 07:00:00 16.8 0 Calma 8 Sudeste 0 -- -- 88
2019-06-01 06:00:00 18.1 4 Sur 10 Sur 0 -- -- 86
2019-06-01 05:00:00 18.4 3 Noroeste 14 Noroeste 0 -- -- 87
2019-06-01 04:00:00 18.3 8 Noroeste 15 Noroeste 0 -- -- 91
2019-06-01 03:00:00 17.6 3 Noroeste 8 Noroeste 0 -- -- 95
2019-06-01 02:00:00 17.9 2 Sudeste 14 Sudeste 0 -- -- 90
2019-06-01 01:00:00 18.4 9 Sudeste 14 Sur 0 -- -- 88
2019-06-01 00:00:00 18.5 7 Sur 13 Sudeste 0 -- -- 89
2019-05-31 23:00:00 18.3 6 Sudeste 9 Sudeste 0 -- -- 89
2019-05-31 22:00:00 19.1 4 Sudeste 9 Sur 0 -- -- 82
2019-05-31 21:00:00 19.9 2 Sudeste 6 Sur 0 -- -- 76
2019-05-31 20:00:00 21 4 Sur 8 Sudoeste 0 -- -- 73
2019-05-31 19:00:00 21.3 5 Sudoeste 14 Sur 0 -- -- 75
2019-05-31 18:00:00 22.4 8 Sur 14 Sudoeste 0 -- -- 72
2019-05-31 17:00:00 23.3 7 Sudoeste 13 Sudoeste 0 -- -- 67
2019-05-31 16:00:00 23.4 8 Sudoeste 16 Sur 0 -- -- 67
2019-05-31 15:00:00 22.9 8 Sur 15 Sur 0 -- -- 69
2019-05-31 14:00:00 22.8 8 Sur 14 Sur 0 -- -- 68
2019-05-31 13:00:00 22.7 8 Sur 12 Sudoeste 0 -- -- 67
2019-05-31 12:00:00 22.4 7 Sudoeste 13 Sudoeste 0 -- -- 70
2019-05-31 11:00:00 22 6 Oeste 10 Oeste 0 -- -- 70
2019-05-31 10:00:00 20.8 5 Oeste 9 Noroeste 0 -- -- 77
2019-05-31 09:00:00 17.9 2 Sudoeste 5 Oeste 0 -- -- 90
2019-05-31 08:00:00 15.4 3 Sudeste 8 Este 0 -- -- 95
2019-05-31 07:00:00 14.9 0 Calma 5 Noroeste 0 -- -- 95
2019-05-31 06:00:00 14.9 3 Nordeste 4 Nordeste 0 -- -- 94
2019-05-31 05:00:00 15.3 3 Nordeste 4 Nordeste 0 -- -- 92
2019-05-31 04:00:00 15.8 0 Calma 7 Sudeste 0 -- -- 92
2019-05-31 03:00:00 16.2 4 Sudeste 7 Sudeste 0 -- -- 91
2019-05-31 02:00:00 16.5 4 Sudeste 8 Sudeste 0 -- -- 91
2019-05-31 01:00:00 16.5 2 Sudeste 5 Este 0 -- -- 90
2019-05-31 00:00:00 16.9 0 Calma 3 Sudeste 0 -- -- 87
2019-05-30 23:00:00 17.5 0 Calma 4 Sudeste 0 -- -- 85
2019-05-30 22:00:00 18.2 0 Calma 8 Sur 0 -- -- 85
2019-05-30 21:00:00 18.9 4 Sur 8 Sur 0 -- -- 83
2019-05-30 20:00:00 20.2 6 Sudoeste 11 Sudoeste 0 -- -- 78
2019-05-30 19:00:00 21.1 8 Sudoeste 12 Sudoeste 0 -- -- 72
2019-05-30 18:00:00 22.1 8 Sudoeste 17 Sudeste 0 -- -- 70
2019-05-30 17:00:00 22.2 10 Sur 21 Sur 0 -- -- 69
2019-05-30 16:00:00 22.7 10 Sur 21 Sur 0 -- -- 65
2019-05-30 15:00:00 22.7 11 Sur 17 Sur 0 -- -- 66
2019-05-30 14:00:00 22.5 9 Sur 16 Sur 0 -- -- 66
2019-05-30 13:00:00 22.2 9 Sur 14 Sur 0 -- -- 68
2019-05-30 12:00:00 23.3 7 Sudoeste 12 Oeste 0 -- -- 62
2019-05-30 11:00:00 23 7 Noroeste 13 Noroeste 0 -- -- 65
2019-05-30 10:00:00 20 4 Oeste 9 Oeste 0 -- -- 76
2019-05-30 09:00:00 18.3 2 Sur 8 Sudoeste 0 -- -- 83
2019-05-30 08:00:00 15.3 2 Nordeste 7 Norte 0 -- -- 93
2019-05-30 07:00:00 15.1 4 Norte 6 Nordeste 0 -- -- 92
2019-05-30 06:00:00 16 0 Calma 12 Sur 0 -- -- 89
2019-05-30 05:00:00 16 5 Sudeste 8 Sudeste 0 -- -- 89
2019-05-30 04:00:00 16.4 6 Sudeste 9 Sudeste 0 -- -- 89
2019-05-30 03:00:00 16.5 5 Este 8 Sudeste 0 -- -- 89
2019-05-30 02:00:00 16.8 2 Este 5 Este 0 -- -- 88
2019-05-30 01:00:00 17.7 0 Calma 6 Sudoeste 0 -- -- 83
2019-05-30 00:00:00 18.7 4 Sur 10 Sur 0 -- -- 83
2019-05-29 23:00:00 18.6 3 Sudoeste 6 Sudoeste 0 -- -- 84
2019-05-29 22:00:00 18.5 2 Sur 11 Sur 0 -- -- 84
2019-05-29 21:00:00 19 2 Este 12 Sudoeste 0 -- -- 82
2019-05-29 20:00:00 20.1 7 Sur 14 Sur 0 -- -- 76
2019-05-29 19:00:00 20.9 11 Sur 17 Sur 0 -- -- 71
2019-05-29 18:00:00 22 11 Sur 16 Sur 0 -- -- 68
2019-05-29 17:00:00 22.9 8 Sudoeste 14 Oeste 0 -- -- 64
2019-05-29 16:00:00 23.6 7 Sudoeste 14 Oeste 0 -- -- 62
2019-05-29 15:00:00 24.3 9 Oeste 15 Oeste 0 -- -- 60
2019-05-29 14:00:00 24.4 8 Oeste 13 Sudoeste 0 -- -- 61
2019-05-29 13:00:00 23.1 7 Sudoeste 16 Sur 0 -- -- 64
2019-05-29 12:00:00 22.4 10 Sur 15 Sur 0 -- -- 66
2019-05-29 11:00:00 22.7 6 Sudoeste 10 Oeste 0 -- -- 65
2019-05-29 10:00:00 21 5 Sudoeste 9 Oeste 0 -- -- 73
2019-05-29 09:00:00 19 5 Sudoeste 10 Oeste 0 -- -- 80
2019-05-29 08:00:00 18.6 4 Oeste 8 Oeste 0 -- -- 83
2019-05-29 07:00:00 18.5 4 Oeste 8 Sur 0 -- -- 83
2019-05-29 06:00:00 18.5 6 Sur 13 Sudeste 0 -- -- 82
2019-05-29 05:00:00 18.6 2 Sur 9 Sur 0 -- -- 82
2019-05-29 04:00:00 18.8 3 Sudoeste 13 Sur 0 -- -- 82
2019-05-29 03:00:00 19 2 Sudoeste 8 Oeste 0 -- -- 82
2019-05-29 02:00:00 19.2 0 Calma 6 Oeste 0 -- -- 84
2019-05-29 01:00:00 19.3 2 Sudoeste 7 Oeste 0 -- -- 87
2019-05-29 00:00:00 19.4 3 Oeste 8 Sur 0 -- -- 87
2019-05-28 23:00:00 19.4 5 Sur 15 Sur 0 -- -- 88
2019-05-28 22:00:00 19.4 9 Sur 13 Sudeste 0 -- -- 86
2019-05-28 21:00:00 19.6 5 Sur 8 Sur 0 -- -- 84
2019-05-28 20:00:00 20.7 5 Sur 10 Sudoeste 0 -- -- 79
2019-05-28 19:00:00 21.7 6 Sur 14 Sur 0 -- -- 75
2019-05-28 18:00:00 22.9 7 Sudoeste 14 Oeste 0 -- -- 71
2019-05-28 17:00:00 23.2 7 Sudoeste 12 Sur 0 -- -- 69
2019-05-28 16:00:00 22.8 9 Sur 19 Sur 0 -- -- 71
2019-05-28 15:00:00 22.9 13 Sur 23 Sur 0 -- -- 71
2019-05-28 14:00:00 22.8 13 Sur 24 Sur 0 -- -- 72
2019-05-28 13:00:00 22.8 15 Sur 24 Sur 0 -- -- 72
2019-05-28 12:00:00 22.7 11 Sur 18 Sur 0 -- -- 71
2019-05-28 11:00:00 22.9 5 Sudoeste 10 Sudoeste 0 -- -- 70
2019-05-28 10:00:00 22 4 Oeste 7 Sudoeste 0 -- -- 76
2019-05-28 09:00:00 19.6 0 Calma 3 Sudeste 0 -- -- 87
2019-05-28 08:00:00 18.2 0 Calma 6 Sur 0 -- -- 93
2019-05-28 07:00:00 18.1 3 Sur 10 Sur 0 -- -- 94
2019-05-28 06:00:00 17.6 4 Sudeste 10 Sudeste 0 -- -- 95
2019-05-28 05:00:00 17.4 6 Sudeste 9 Sudeste 0 -- -- 95
2019-05-28 04:00:00 17 2 Sudeste 5 Sudeste 0 -- -- 92
2019-05-28 03:00:00 17.3 4 Nordeste 5 Sudeste 0 -- -- 92
2019-05-28 02:00:00 18.3 5 Sudeste 9 Sudeste 0 -- -- 92
2019-05-28 01:00:00 17.9 2 Sur 5 Norte 0 -- -- 90
2019-05-28 00:00:00 18.1 0 Calma 4 Sur 0 -- -- 87
2019-05-27 23:00:00 18.9 2 Sur 6 Sur 0 -- -- 87
2019-05-27 22:00:00 19.6 4 Sudeste 6 Sur 0 -- -- 85
2019-05-27 21:00:00 20.3 4 Sur 6 Sur 0 -- -- 83
2019-05-27 20:00:00 21.5 4 Oeste 9 Sudoeste 0 -- -- 79
2019-05-27 19:00:00 22.3 6 Sur 11 Sur 0 -- -- 75
2019-05-27 18:00:00 22.7 8 Sur 13 Sudoeste 0 -- -- 71
2019-05-27 17:00:00 23.2 9 Sur 15 Sur 0 -- -- 73
2019-05-27 16:00:00 23.7 9 Sur 13 Sudoeste 0 -- -- 69
2019-05-27 15:00:00 24.7 6 Sudoeste 12 Sudoeste 0 -- -- 65
2019-05-27 14:00:00 23.6 7 Sudoeste 12 Sudoeste 0 -- -- 72
2019-05-27 13:00:00 23.7 7 Sudoeste 12 Sudoeste 0 -- -- 72
2019-05-27 12:00:00 22.9 7 Oeste 10 Sudoeste 0 -- -- 72
2019-05-27 11:00:00 22 6 Sur 11 Sur 0 -- -- 77
2019-05-27 10:00:00 21.3 4 Sudoeste 8 Sudoeste 0 -- -- 78
2019-05-27 09:00:00 18.6 5 Sur 8 Sur 0 -- -- 80
2019-05-27 08:00:00 15.5 0 Calma 5 Sudeste 0 -- -- 88
2019-05-27 07:00:00 15.9 4 Sudeste 10 Sudeste 0 -- -- 83
2019-05-27 06:00:00 15.8 2 Nordeste 10 Nordeste 0 -- -- 84
2019-05-27 05:00:00 16.5 5 Sudeste 8 Sudeste 0 -- -- 94
2019-05-27 04:00:00 16.4 3 Nordeste 7 Este 0 -- -- 88
2019-05-27 03:00:00 16.8 0 Calma 9 Este 0 -- -- 86
2019-05-27 02:00:00 17 4 Sudeste 9 Sudeste 0 -- -- 88
2019-05-27 01:00:00 16.8 3 Nordeste 3 Nordeste 0 -- -- 88
2019-05-27 00:00:00 17.3 0 Calma 5 Sudeste 0 -- -- 85
2019-05-26 23:00:00 17.9 0 Calma 5 Norte 0 -- -- 84
2019-05-26 22:00:00 18.5 2 Noroeste 4 Oeste 0 -- -- 82
2019-05-26 21:00:00 19.6 0 Calma 8 Sudoeste 0 -- -- 78
2019-05-26 20:00:00 20.6 5 Sur 9 Sur 0 -- -- 75
2019-05-26 19:00:00 21.5 6 Sur 13 Sudoeste 0 -- -- 73
2019-05-26 18:00:00 22.4 8 Sur 14 Sur 0 -- -- 67
2019-05-26 17:00:00 23.2 8 Sur 12 Sur 0 -- -- 62
2019-05-26 16:00:00 23.5 6 Sudoeste 13 Sudoeste 0 -- -- 61
2019-05-26 15:00:00 24.4 7 Oeste 12 Sudoeste 0 -- -- 58
2019-05-26 14:00:00 23.2 7 Sudoeste 13 Sudoeste 0 -- -- 61
2019-05-26 13:00:00 22.6 7 Sur 11 Sudoeste 0 -- -- 65
2019-05-26 12:00:00 22.4 7 Sur 10 Sudoeste 0 -- -- 66
2019-05-26 11:00:00 22.2 6 Sudoeste 10 Sudoeste 0 -- -- 66
2019-05-26 10:00:00 21.7 5 Oeste 9 Oeste 0 -- -- 66
2019-05-26 09:00:00 18.7 4 Sur 8 Sur 0 -- -- 79
2019-05-26 08:00:00 16.2 0 Calma 4 Este 0 -- -- 87
2019-05-26 07:00:00 17 3 Sudeste 8 Sur 0 -- -- 86
2019-05-26 06:00:00 16.6 4 Sudeste 8 Sudeste 0 -- -- 87
2019-05-26 05:00:00 17.3 2 Sur 11 Oeste 0 -- -- 84
2019-05-26 04:00:00 18 4 Sudoeste 11 Noroeste 0 -- -- 84
2019-05-26 03:00:00 17.2 4 Sudoeste 9 Oeste 0 -- -- 86
2019-05-26 02:00:00 17.3 4 Este 9 Sur 0 -- -- 85
2019-05-26 01:00:00 17.9 5 Sudeste 9 Sur 0 -- -- 84
2019-05-26 00:00:00 18.8 3 Sudeste 6 Sudeste 0 -- -- 80
2019-05-25 23:00:00 19.3 4 Noroeste 8 Noroeste 0 -- -- 85
2019-05-25 22:00:00 19.4 5 Sur 12 Sudeste 0 -- -- 84
2019-05-25 21:00:00 19.6 6 Sur 15 Sur 0 -- -- 83
2019-05-25 20:00:00 20.7 10 Sur 16 Sur 0 -- -- 76
2019-05-25 19:00:00 22.7 8 Oeste 14 Oeste 0 -- -- 68
2019-05-25 18:00:00 23.5 8 Oeste 14 Oeste 0 -- -- 67
2019-05-25 17:00:00 23.8 9 Sudoeste 14 Sudoeste 0 -- -- 66
2019-05-25 16:00:00 23.9 2 Sudoeste 15 Sur 0 -- -- 66
2019-05-25 15:00:00 23.3 10 Sur 16 Sur 0 -- -- 67
2019-05-25 14:00:00 23.5 10 Sur 15 Sur 0 -- -- 65
2019-05-25 13:00:00 24.8 8 Oeste 14 Oeste 0 -- -- 64
2019-05-25 12:00:00 24.2 9 Oeste 13 Oeste 0 -- -- 69
2019-05-25 11:00:00 22.2 6 Sur 11 Sur 0 -- -- 73
2019-05-25 10:00:00 21.2 6 Sur 12 Sur 0 -- -- 73
2019-05-25 09:00:00 19.8 6 Sudeste 12 Sudeste 0 -- -- 76
2019-05-25 08:00:00 17.1 6 Este 9 Sudeste 0 -- -- 85
2019-05-25 07:00:00 16.9 3 Sudeste 9 Sur 0 -- -- 89
2019-05-25 06:00:00 17.6 5 Sudeste 20 Sudeste 0 -- -- 86
2019-05-25 05:00:00 18.5 15 Sudeste 27 Sudeste 0 -- -- 83
2019-05-25 04:00:00 18.1 5 Sudeste 13 Sudeste 0 -- -- 75
2019-05-25 03:00:00 17.9 4 Sur 14 Sur 0 -- -- 78
2019-05-25 02:00:00 17.1 0 Calma 8 Norte 0 -- -- 79
2019-05-25 01:00:00 18 3 Sudeste 9 Sudeste 0 -- -- 85
2019-05-25 00:00:00 18.5 6 Sur 12 Sudeste 0 -- -- 83
2019-05-24 23:00:00 18.6 5 Sudeste 9 Sudeste 0 -- -- 79
2019-05-24 22:00:00 19.1 3 Sudeste 5 Este 0 -- -- 73
2019-05-24 21:00:00 20.3 3 Este 7 Sur 0 -- -- 68
2019-05-24 20:00:00 21.4 6 Sur 14 Sur 0 -- -- 63
2019-05-24 19:00:00 22.4 6 Sur 12 Oeste 0 -- -- 66
2019-05-24 18:00:00 23.7 5 Oeste 10 Sudoeste 0 -- -- 60
2019-05-24 17:00:00 23.8 7 Sudoeste 13 Sur 0 -- -- 58
2019-05-24 16:00:00 23.9 9 Sur 17 Sur 0 -- -- 59
2019-05-24 15:00:00 24 10 Sur 14 Sur 0 -- -- 62
2019-05-24 14:00:00 23.6 7 Sudoeste 12 Sur 0 -- -- 65
2019-05-24 13:00:00 23.4 8 Sudoeste 13 Sur 0 -- -- 66
2019-05-24 12:00:00 22.6 9 Sur 13 Sur 0 -- -- 71
2019-05-24 11:00:00 21.6 8 Sur 13 Sur 0 -- -- 74
2019-05-24 10:00:00 20.7 7 Sur 12 Sur 0 -- -- 75
2019-05-24 09:00:00 18.8 6 Sur 12 Sudeste 0 -- -- 80
2019-05-24 08:00:00 15.8 6 Sudeste 8 Sudeste 0 -- -- 89
2019-05-24 07:00:00 16 4 Nordeste 9 Sudeste 0 -- -- 87
2019-05-24 06:00:00 16 6 Sudeste 10 Sudeste 0 -- -- 86
2019-05-24 05:00:00 16.3 6 Sudeste 10 Sudeste 0 -- -- 84
2019-05-24 04:00:00 15.9 0 Calma 4 Noroeste 0 -- -- 86
2019-05-24 03:00:00 16.6 0 Calma 8 Sudeste 0 -- -- 81
2019-05-24 02:00:00 17.7 5 Sudeste 16 Sudeste 0 -- -- 77
2019-05-24 01:00:00 17.6 8 Sudeste 11 Sudeste 0 -- -- 84
2019-05-24 00:00:00 17.9 2 Este 9 Sudeste 0 -- -- 81
2019-05-23 23:00:00 18.8 5 Sudeste 15 Sudeste 0 -- -- 77
2019-05-23 22:00:00 19.5 8 Sudeste 15 Sudeste 0 -- -- 71
2019-05-23 21:00:00 20 7 Sudeste 13 Sudoeste 0 -- -- 71
2019-05-23 20:00:00 21.3 6 Sudoeste 13 Oeste 0 -- -- 71
2019-05-23 19:00:00 21.8 9 Sur 18 Sur 0 -- -- 69
2019-05-23 18:00:00 23.1 9 Sur 15 Sur 0 -- -- 61
2019-05-23 17:00:00 23.9 9 Sur 15 Sur 0 -- -- 60
2019-05-23 16:00:00 24.7 12 Oeste 15 Sudoeste 0 -- -- 60
2019-05-23 15:00:00 23.9 8 Sudoeste 16 Sur 0 -- -- 63
2019-05-23 14:00:00 23.6 9 Sur 15 Sur 0 -- -- 64
2019-05-23 13:00:00 23.6 8 Sur 14 Sur 0 -- -- 63
2019-05-23 12:00:00 23.1 7 Sur 13 Sur 0 -- -- 63
2019-05-23 11:00:00 22.1 8 Sur 12 Sur 0 -- -- 69
2019-05-23 10:00:00 21.4 6 Sur 12 Sur 0 -- -- 71
2019-05-23 09:00:00 19.5 3 Sur 9 Sudeste 0 -- -- 75
2019-05-23 08:00:00 17 6 Sudeste 13 Sudeste 0 -- -- 81
2019-05-23 07:00:00 16.5 7 Este 12 Sudeste 0 -- -- 83
2019-05-23 06:00:00 16.4 0 Calma 10 Este 0 -- -- 84
2019-05-23 05:00:00 17.1 5 Este 13 Sudeste 0 -- -- 83
2019-05-23 04:00:00 17.4 9 Sudeste 14 Sudeste 0 -- -- 83
2019-05-23 03:00:00 17.1 6 Este 14 Sudeste 0 -- -- 83
2019-05-23 02:00:00 17.6 3 Este 10 Sudoeste 0 -- -- 83
2019-05-23 01:00:00 18.1 7 Sudeste 13 Sudeste 0 -- -- 78
2019-05-23 00:00:00 18.3 6 Sudeste 12 Sudeste 0 -- -- 79
2019-05-22 23:00:00 18.3 5 Sudeste 10 Sudeste 0 -- -- 81
2019-05-22 22:00:00 18.9 0 Calma 6 Sudoeste 0 -- -- 76
2019-05-22 21:00:00 19.8 4 Sur 14 Sur 0 -- -- 73
2019-05-22 20:00:00 20.9 9 Sur 15 Sur 0 -- -- 65
2019-05-22 19:00:00 21.8 10 Sur 18 Sudoeste 0 -- -- 64
2019-05-22 18:00:00 23.2 8 Sur 14 Sudoeste 0 -- -- 60
2019-05-22 17:00:00 23.8 9 Sudoeste 15 Sudoeste 0 -- -- 60
2019-05-22 16:00:00 23.8 10 Sur 17 Sur 0 -- -- 60
2019-05-22 15:00:00 23.9 9 Sudoeste 16 Sur 0 -- -- 60
2019-05-22 14:00:00 23.8 9 Sur 15 Sur 0 -- -- 62
2019-05-22 13:00:00 23.5 9 Sudoeste 14 Sur 0 -- -- 61
2019-05-22 12:00:00 22.7 6 Sudoeste 12 Sur 0 -- -- 64
2019-05-22 11:00:00 22.3 5 Sudoeste 10 Sudoeste 0 -- -- 63
2019-05-22 10:00:00 21.5 4 Sudoeste 8 Sudoeste 0 -- -- 67
2019-05-22 09:00:00 18.7 0 Calma 7 Nordeste 0 -- -- 79
2019-05-22 08:00:00 15.6 4 Nordeste 9 Nordeste 0 -- -- 89
2019-05-22 07:00:00 15.7 3 Este 9 Este 0 -- -- 87
2019-05-22 06:00:00 16.1 6 Sudeste 10 Este 0 -- -- 85
2019-05-22 05:00:00 16.1 5 Este 9 Este 0 -- -- 85
2019-05-22 04:00:00 16.2 2 Sudeste 7 Sudeste 0 -- -- 86
2019-05-22 03:00:00 17 5 Sudeste 9 Sudeste 0 -- -- 85
2019-05-22 02:00:00 17.8 5 Sudeste 8 Sudeste 0 -- -- 85
2019-05-22 01:00:00 18 4 Este 12 Sudeste 0 -- -- 84
2019-05-22 00:00:00 18.1 3 Este 8 Sudeste 0 -- -- 82
2019-05-21 23:00:00 18.6 4 Este 7 Sudoeste 0 -- -- 81
2019-05-21 22:00:00 19.4 3 Norte 14 Sur 0 -- -- 78
2019-05-21 21:00:00 19.6 9 Sur 18 Sudeste 0 -- -- 71
2019-05-21 20:00:00 20.7 5 Sur 11 Sur 0 -- -- 69
2019-05-21 19:00:00 21.1 5 Sur 12 Sur 0 -- -- 66
2019-05-21 18:00:00 21.9 8 Sur 14 Oeste 0 -- -- 63
2019-05-21 17:00:00 -- 11 Oeste 17 Oeste -- -- -- --
2019-05-21 16:00:00 24.1 10 Sudoeste 15 Oeste 0 -- -- 59
2019-05-21 15:00:00 23.4 9 Sudoeste 14 Sudoeste 0 -- -- 62
2019-05-21 14:00:00 22.9 9 Sudoeste 17 Sudoeste 0 -- -- 59
2019-05-21 13:00:00 23.1 8 Sudoeste 17 Sudoeste 0 -- -- 63
2019-05-21 12:00:00 22.5 9 Sudoeste 14 Oeste 0 -- -- 66
2019-05-21 11:00:00 22 9 Sudoeste 13 Sudoeste 0 -- -- 63
2019-05-21 10:00:00 20.9 6 Sudoeste 9 Sudoeste 0 -- -- 65
2019-05-21 09:00:00 18.1 2 Sudoeste 5 Nordeste 0 -- -- 73
2019-05-21 08:00:00 15.5 3 Nordeste 7 Este 0 -- -- 86
2019-05-21 07:00:00 15.1 3 Sudeste 6 Nordeste 0 -- -- 81
2019-05-21 06:00:00 15.3 3 Este 8 Este 0 -- -- 82
2019-05-21 05:00:00 16.1 6 Este 9 Este 0 -- -- 79
2019-05-21 04:00:00 16.1 5 Este 7 Sudeste 0 -- -- 80
2019-05-21 03:00:00 16.4 4 Sudeste 7 Este 0 -- -- 79
2019-05-21 02:00:00 16.6 0 Calma 3 Oeste 0 -- -- 78
2019-05-21 01:00:00 17.9 0 Calma 7 Sudeste 0 -- -- 73
2019-05-21 00:00:00 19.1 6 Sudeste 15 Oeste 0 -- -- 69